createdAt,value
2023-01-27T06:57:14.310Z,100.00
2023-01-27T06:58:17.397Z,100.00
2023-01-27T06:59:20.693Z,100.00
2023-01-27T07:00:23.582Z,100.00
2023-01-27T07:01:26.339Z,100.00
2023-01-27T07:02:32.190Z,100.00
2023-01-27T07:03:37.430Z,100.00
2023-01-27T07:04:43.388Z,100.00
2023-01-27T07:05:48.628Z,100.00
2023-01-27T07:06:50.962Z,100.00
2023-01-27T07:07:56.139Z,100.00
2023-01-27T07:08:59.549Z,100.00
2023-01-27T07:10:02.833Z,100.00
2023-01-27T07:11:06.235Z,100.00
2023-01-27T07:12:09.542Z,100.00
2023-01-27T07:13:12.844Z,100.00
2023-01-27T07:14:16.344Z,100.00
2023-01-27T07:15:21.821Z,100.00
2023-01-27T07:16:25.606Z,100.00
2023-01-27T07:17:29.161Z,100.00
2023-01-27T07:18:35.373Z,100.00
2023-01-27T07:19:38.675Z,100.00
2023-01-27T07:20:42.394Z,100.00
2023-01-27T07:21:45.984Z,100.00
2023-01-27T07:22:52.231Z,100.00
2023-01-27T07:23:58.811Z,100.00
2023-01-27T07:25:02.157Z,100.00
2023-01-27T07:26:12.506Z,100.00
2023-01-27T07:27:10.361Z,100.00
2023-01-27T11:05:46.598Z,100.00
2023-01-27T11:06:52.415Z,100.00
2023-01-27T11:07:59.350Z,100.00
2023-01-27T11:09:04.511Z,100.00
2023-01-27T11:10:20.249Z,100.00
2023-01-27T11:11:44.023Z,100.00
2023-01-27T11:12:49.191Z,100.00
2023-01-27T11:13:56.012Z,99.96
2023-01-27T11:15:01.418Z,98.35
2023-01-27T11:16:07.129Z,99.97
2023-01-27T11:17:29.949Z,100.00
2023-01-27T11:18:36.302Z,100.00
2023-01-27T11:19:53.127Z,100.00
2023-01-27T11:20:58.537Z,100.00
2023-01-27T11:22:09.024Z,99.35
2023-01-27T11:24:48.512Z,99.14
2023-01-27T11:25:58.307Z,98.15
2023-01-27T11:27:11.523Z,97.78
2023-01-27T11:28:20.874Z,98.65
2023-01-27T11:29:31.920Z,98.82
2023-01-27T11:30:43.613Z,99.56
2023-01-27T11:31:56.626Z,98.81
2023-01-27T11:33:04.812Z,98.83
2023-01-27T11:34:10.260Z,96.86
2023-01-27T11:35:15.668Z,96.41
2023-01-27T11:36:20.196Z,96.41
2023-01-27T11:37:25.605Z,94.75
2023-01-27T11:38:28.790Z,95.46
2023-01-27T11:39:33.851Z,95.98
2023-01-27T11:40:41.659Z,96.45
2023-01-27T11:41:46.691Z,96.80
2023-01-27T11:42:52.017Z,97.34
2023-01-27T11:43:55.686Z,97.07
2023-01-27T11:45:05.648Z,95.89
2023-01-27T11:46:10.835Z,95.41
2023-01-27T11:47:19.544Z,95.01
2023-01-27T11:48:23.651Z,96.58
2023-01-27T11:49:31.402Z,97.50
2023-01-27T11:50:35.984Z,97.86
2023-01-27T11:51:40.380Z,98.30
2023-01-27T11:52:45.983Z,98.43
2023-01-27T11:54:01.448Z,98.12
2023-01-27T11:55:06.780Z,98.58
2023-01-27T11:56:11.014Z,98.62
2023-01-27T11:57:25.819Z,99.13
2023-01-27T11:58:34.596Z,99.47
2023-01-27T11:59:39.919Z,99.72
2023-01-27T12:00:47.710Z,100.00
2023-01-27T12:02:02.513Z,97.76
2023-01-27T12:03:10.160Z,97.30
2023-01-27T12:04:21.152Z,96.99
2023-01-27T12:05:26.892Z,95.77
2023-01-27T12:06:41.364Z,96.05
2023-01-27T12:07:50.372Z,97.01
2023-01-27T12:08:53.386Z,96.79
2023-01-27T12:09:56.610Z,96.48
2023-01-27T12:11:01.234Z,96.28
2023-01-27T12:12:07.445Z,96.70
2023-01-27T12:13:18.272Z,96.54
2023-01-27T12:14:23.444Z,96.93
2023-01-27T12:15:28.466Z,96.50
2023-01-27T12:16:36.655Z,95.92
2023-01-27T12:17:42.976Z,95.01
2023-01-27T12:18:50.874Z,95.00
2023-01-27T12:19:58.817Z,94.99
2023-01-27T12:21:04.002Z,94.24
2023-01-27T12:22:09.603Z,94.71
2023-01-27T12:23:17.929Z,94.83
2023-01-27T12:24:35.619Z,94.90
2023-01-27T12:25:41.529Z,94.85
2023-01-27T12:26:45.568Z,94.01
2023-01-27T12:27:50.282Z,94.39
2023-01-27T12:28:54.558Z,94.57
2023-01-27T12:29:59.835Z,93.09
2023-01-27T12:31:04.993Z,93.35
2023-01-27T12:32:16.012Z,94.21
2023-01-27T12:33:21.420Z,93.55
2023-01-27T12:34:26.909Z,93.60
2023-01-27T12:35:32.179Z,93.63
2023-01-27T12:36:42.490Z,93.67
2023-01-27T12:37:47.443Z,95.54
2023-01-27T12:38:51.264Z,96.31
2023-01-27T12:39:57.697Z,96.19
2023-01-27T12:41:04.031Z,95.81
2023-01-27T12:42:07.313Z,96.02
2023-01-27T12:43:16.223Z,96.42
2023-01-27T12:44:23.375Z,97.02
2023-01-27T12:45:31.623Z,97.43
2023-01-27T12:46:35.694Z,98.45
2023-01-27T12:47:45.002Z,98.34
2023-01-27T12:48:51.094Z,97.10
2023-01-27T12:50:16.349Z,97.47
2023-01-27T12:51:21.305Z,97.39
2023-01-27T12:52:24.612Z,96.90
2023-01-27T12:53:28.427Z,96.00
2023-01-27T12:54:33.400Z,95.76
2023-01-27T12:55:38.567Z,95.41
2023-01-27T12:56:41.661Z,96.00
2023-01-27T12:57:47.120Z,95.67
2023-01-27T12:58:58.496Z,95.80
2023-01-27T13:00:01.263Z,96.33
2023-01-27T13:01:23.044Z,97.65
2023-01-27T13:02:27.386Z,97.34
2023-01-27T13:03:31.253Z,96.65
2023-01-27T13:04:37.150Z,95.72
2023-01-27T13:05:45.971Z,95.10
2023-01-27T13:06:56.763Z,94.94
2023-01-27T13:08:01.767Z,95.65
2023-01-27T13:09:05.117Z,95.40
2023-01-27T13:10:11.910Z,97.63
2023-01-27T13:11:16.545Z,97.90
2023-01-27T13:12:30.584Z,97.99
2023-01-27T13:13:34.820Z,98.61
2023-01-27T13:14:41.095Z,98.64
2023-01-27T13:15:46.493Z,98.82
2023-01-27T13:16:58.729Z,98.40
2023-01-27T13:18:03.150Z,97.34
2023-01-27T13:19:11.173Z,97.21
2023-01-27T13:20:35.197Z,97.09
2023-01-27T13:21:40.694Z,96.95
2023-01-27T13:22:46.087Z,97.04
2023-01-27T13:23:50.005Z,96.67
2023-01-27T13:24:56.049Z,98.04
2023-01-27T13:26:01.001Z,99.18
2023-01-27T13:27:05.541Z,99.14
2023-01-27T13:28:10.831Z,99.90
2023-01-27T13:29:17.155Z,99.23
2023-01-27T13:30:22.539Z,99.47
2023-01-27T13:31:43.588Z,100.00
2023-01-27T13:32:50.636Z,100.00
2023-01-27T13:33:55.829Z,100.00
2023-01-27T13:35:04.133Z,100.00
2023-01-27T13:36:15.472Z,99.88
2023-01-27T13:37:31.620Z,99.96
2023-01-27T13:38:44.102Z,100.00
2023-01-27T13:39:51.158Z,100.00
2023-01-27T13:40:59.185Z,100.00
2023-01-27T13:42:08.229Z,100.00
2023-01-27T13:43:25.373Z,100.00
2023-01-27T13:44:29.515Z,100.00
2023-01-27T13:45:42.213Z,100.00
2023-01-27T13:46:45.713Z,100.00
2023-01-27T13:47:52.252Z,100.00
2023-01-27T13:48:57.573Z,100.00
2023-01-27T13:50:02.716Z,100.00
2023-01-27T13:51:09.349Z,100.00
2023-01-27T13:52:14.756Z,100.00
2023-01-27T13:53:18.958Z,100.00
2023-01-27T13:54:25.081Z,100.00
2023-01-27T13:55:47.027Z,100.00
2023-01-27T13:56:57.260Z,100.00
2023-01-27T13:58:03.297Z,100.00
2023-01-27T13:59:08.671Z,100.00
2023-01-27T14:00:13.575Z,100.00
2023-01-27T14:01:31.169Z,100.00
2023-01-27T14:02:46.845Z,100.00
2023-01-27T14:04:02.182Z,100.00
2023-01-27T14:05:09.971Z,100.00
2023-01-27T14:07:36.919Z,100.00
2023-01-27T14:08:41.971Z,100.00
2023-01-27T14:09:57.807Z,100.00
2023-01-27T14:11:07.579Z,100.00
2023-01-27T14:12:13.783Z,100.00
2023-01-27T14:13:22.108Z,100.00
2023-01-27T14:14:56.094Z,100.00
2023-01-27T14:15:55.695Z,100.00
2023-01-27T14:17:03.655Z,100.00
2023-01-27T14:18:09.464Z,100.00
2023-01-27T14:19:16.181Z,100.00
2023-01-27T14:20:21.590Z,100.00
2023-01-27T14:21:39.531Z,100.00
2023-01-27T14:22:45.064Z,100.00
2023-01-27T14:23:51.982Z,100.00
2023-01-27T14:25:03.500Z,100.00
2023-01-27T14:26:10.347Z,100.00
2023-01-27T14:27:15.519Z,100.00
2023-01-27T14:28:28.977Z,100.00
2023-01-27T14:29:34.433Z,100.00
2023-01-27T14:30:41.440Z,100.00
2023-01-27T14:31:49.826Z,100.00
2023-01-27T14:33:02.284Z,100.00
2023-01-27T14:34:16.342Z,100.00
2023-01-27T14:35:21.868Z,100.00
2023-01-27T14:36:30.134Z,100.00
2023-01-27T14:37:35.527Z,100.00
2023-01-27T14:38:55.844Z,100.00
2023-01-27T14:40:16.633Z,100.00
2023-01-27T14:41:28.445Z,100.00
2023-01-27T14:42:36.545Z,100.00
2023-01-27T14:43:43.813Z,100.00
2023-01-27T14:45:06.641Z,100.00
2023-01-27T14:46:11.742Z,100.00
2023-01-27T14:47:26.181Z,100.00
2023-01-27T14:48:31.465Z,100.00
2023-01-27T14:49:43.315Z,100.00
2023-01-27T14:50:53.119Z,100.00
2023-01-27T14:52:06.996Z,100.00
2023-01-27T14:53:28.152Z,100.00
2023-01-27T14:54:36.409Z,100.00
2023-01-27T14:55:52.863Z,100.00
2023-01-27T14:57:05.985Z,100.00
2023-01-27T14:58:16.993Z,100.00
2023-01-27T14:59:22.183Z,100.00
2023-01-27T15:00:34.940Z,100.00
2023-01-27T15:01:43.620Z,100.00
2023-01-27T15:03:05.376Z,100.00
2023-01-27T15:04:13.385Z,100.00
2023-01-27T15:05:17.605Z,100.00
2023-01-27T15:06:24.052Z,100.00
2023-01-27T15:07:46.354Z,100.00
2023-01-27T15:08:58.727Z,100.00
2023-01-27T15:10:04.986Z,100.00
2023-01-27T15:11:20.894Z,100.00
2023-01-27T15:12:32.071Z,100.00
2023-01-27T15:13:44.222Z,100.00
2023-01-27T15:15:05.773Z,100.00
2023-01-27T15:16:11.179Z,100.00
2023-01-27T15:17:16.126Z,100.00
2023-01-27T15:18:39.956Z,100.00
2023-01-27T15:19:46.934Z,100.00
2023-01-27T15:21:04.035Z,100.00
2023-01-27T15:22:28.135Z,100.00
2023-01-27T15:23:45.497Z,100.00
2023-01-27T15:24:57.506Z,100.00
2023-01-27T15:26:02.819Z,100.00
2023-01-27T15:27:08.140Z,100.00
2023-01-27T15:28:13.634Z,100.00
2023-01-27T15:29:18.841Z,100.00
2023-01-27T15:30:27.009Z,100.00
2023-01-27T15:31:31.548Z,100.00
2023-01-27T15:32:39.515Z,100.00
2023-01-27T15:33:51.110Z,100.00
2023-01-27T15:34:56.594Z,100.00
2023-01-27T15:36:19.951Z,100.00
2023-01-27T15:37:24.808Z,100.00
2023-01-27T15:38:31.222Z,100.00
2023-01-27T15:39:41.588Z,100.00
2023-01-27T15:40:55.724Z,100.00
2023-01-27T15:42:02.953Z,100.00
2023-01-27T15:43:05.999Z,100.00
2023-01-27T15:44:27.650Z,100.00
2023-01-27T15:45:35.468Z,100.00
2023-01-27T15:46:41.339Z,100.00
2023-01-27T15:47:43.983Z,100.00
2023-01-27T15:48:48.221Z,100.00
2023-01-27T15:50:02.690Z,100.00
2023-01-27T15:51:08.539Z,100.00
2023-01-27T15:52:12.930Z,100.00
2023-01-27T15:53:18.538Z,100.00
2023-01-27T15:54:24.525Z,100.00
2023-01-27T15:55:32.433Z,100.00
2023-01-27T15:56:48.633Z,100.00
2023-01-27T15:57:54.368Z,100.00
2023-01-27T15:58:59.348Z,100.00
2023-01-27T16:00:07.460Z,100.00
2023-01-27T16:01:35.195Z,100.00
2023-01-27T16:02:40.698Z,100.00
2023-01-27T16:03:47.194Z,100.00
2023-01-27T16:04:54.986Z,100.00
2023-01-27T16:06:10.328Z,100.00
2023-01-27T16:07:21.320Z,100.00
2023-01-27T16:08:25.599Z,100.00
2023-01-27T16:09:33.880Z,100.00
